Wetterstation Vordersexau
Wetterdaten: Dezember 2017
Datum Temp. A. Feuchte A. Luftdruck Regen Wind Richtung Taupunkt Windchill Windben
01.12.2017 1,5 C 79 % 1010,4 hPa 2,6 l/m 0,1 km/h S-SW -1,8 C 1,5 C 0,1 km/h
02.12.2017 -0,4 C 79 % 1019,5 hPa 0,0 l/m 1,3 km/h N-NO -3,7 C -0,6 C 0,7 km/h
03.12.2017 -0,3 C 80 % 1024,3 hPa 0,0 l/m 0,0 km/h O-SO -3,5 C -0,3 C 0,0 km/h
04.12.2017 0,6 C 84 % 1029,9 hPa 1,0 l/m 0,0 km/h NO -1,9 C 0,6 C 0,0 km/h
05.12.2017 2,9 C 81 % 1034,3 hPa 1,6 l/m 0,1 km/h O-SO -0,0 C 2,9 C 0,1 km/h
06.12.2017 3,3 C 81 % 1031,3 hPa 0,5 l/m 0,0 km/h SO 0,4 C 3,3 C 0,0 km/h
07.12.2017 5,7 C 70 % 1020,0 hPa 0,0 l/m 12,0 km/h S-SO 0,3 C 1,9 C 6,7 km/h
08.12.2017 4,5 C 82 % 1011,8 hPa 2,6 l/m 13,2 km/h SW 1,7 C -0,3 C 7,3 km/h
09.12.2017 0,6 C 81 % 1015,0 hPa 0,0 l/m 7,9 km/h W-SW -2,4 C -2,5 C 4,4 km/h
10.12.2017 3,8 C 76 % 993,8 hPa 4,1 l/m 15,0 km/h O-SO -0,0 C -1,5 C 8,3 km/h
11.12.2017 7,9 C 81 % 983,0 hPa 13,5 l/m 14,1 km/h O-SO 4,9 C 3,2 C 7,8 km/h
12.12.2017 4,3 C 75 % 1007,5 hPa 0,0 l/m 17,7 km/h W-SW 0,3 C -2,2 C 9,8 km/h
13.12.2017 4,4 C 74 % 1008,6 hPa 0,5 l/m 15,6 km/h W-SW 0,0 C -1,0 C 8,6 km/h
14.12.2017 6,4 C 80 % 998,1 hPa 3,1 l/m 24,0 km/h W-SW 3,1 C -2,0 C 13,4 km/h
15.12.2017 5,5 C 74 % 996,8 hPa 0,0 l/m 18,8 km/h W-SW 1,3 C -1,4 C 10,4 km/h
16.12.2017 2,3 C 83 % 1008,9 hPa 8,3 l/m 2,7 km/h S-SO -0,3 C 1,3 C 1,5 km/h
17.12.2017 2,0 C 82 % 1022,0 hPa 0,5 l/m 0,0 km/h W-SW -0,9 C 2,0 C 0,0 km/h
18.12.2017 1,4 C 83 % 1021,4 hPa 2,1 l/m 1,9 km/h S -1,1 C 0,6 C 1,1 km/h
19.12.2017 2,1 C 80 % 1030,5 hPa 0,0 l/m 0,0 km/h N -1,0 C 2,1 C 0,0 km/h
20.12.2017 2,9 C 79 % 1031,8 hPa 1,0 l/m 0,0 km/h N-NO -0,3 C 2,9 C 0,0 km/h
21.12.2017 4,6 C 81 % 1033,8 hPa 0,5 l/m 0,2 km/h O-SO 1,6 C 4,6 C 0,1 km/h
22.12.2017 6,1 C 70 % 1032,3 hPa 1,0 l/m 0,0 km/h O-SO 1,1 C 6,1 C 0,0 km/h
23.12.2017 6,9 C 77 % 1033,1 hPa 0,0 l/m 1,9 km/h O-SO 3,0 C 6,2 C 1,1 km/h
24.12.2017 5,7 C 85 % 1028,3 hPa 0,0 l/m 2,7 km/h W 3,4 C 5,0 C 1,5 km/h
25.12.2017 4,3 C 82 % 1017,9 hPa 0,0 l/m 0,3 km/h W 1,5 C 4,2 C 0,2 km/h
26.12.2017 5,4 C 75 % 1005,5 hPa 0,0 l/m 9,9 km/h O 1,2 C 2,4 C 5,5 km/h
27.12.2017 4,9 C 82 % 987,8 hPa 2,1 l/m 11,4 km/h SW 2,1 C 0,5 C 6,4 km/h
28.12.2017 1,2 C 84 % 999,9 hPa 3,6 l/m 4,2 km/h W -1,3 C -0,5 C 2,3 km/h
29.12.2017 2,7 C 77 % 1007,4 hPa 6,7 l/m 4,4 km/h S-SO -1,0 C 1,1 C 2,5 km/h
30.12.2017 9,3 C 82 % 1007,0 hPa 1,0 l/m 20,8 km/h SW 6,4 C 3,3 C 11,5 km/h
31.12.2017 11,9 C 72 % 1009,2 hPa 0,0 l/m 18,1 km/h W-SW 6,8 C 6,8 C 10,1 km/h
Min-Datum 03.12.17 07.12.17 11.12.17 19 Tage 01.12.17 - 03.12.17 09.12.17 01.12.17
Min-Zeit 00:53 14:53 09:53 - 02:53 - 00:53 23:53 02:53
Minimum -4,5 C 48 % 978,3 hPa - 0,0 km/h - -6,5 C -11,3 C 0,0 km/h
Max-Datum 31.12.17 01.12.17 05.12.17 11.12.17 26.12.17 - 30.12.17 31.12.17 26.12.17
Max-Zeit 13:53 10:53 10:53 12:53 09:53 - 15:53 14:53 09:53
Maximum 14,6 C 86 % 1035,2 hPa 13,5 l/m 51,8 km/h
O
- 10,1 C 14,3 C 28,8 km/h
O
Durchschnitt 4,0 C 79 % 1014,9 hPa #56,5 l/m 7,0 km/h W-SW 0,6 C 1,6 C 3,9 km/h

Durchschnitt Minimum Temp.1,1 C
Durchschnitt Maximum Temp.7,9 C
www.sexauwetter.de